Latest Weather Observations for Broken Hill Airport

IDN60801

Issued at 2:02 pm EST Wednesday 23 August 2017 (issued every 30 minutes, with the page automatically refreshed every 10 minutes)

About weather observations | Map of weather stations | Latest weather observations for NSW | Other Formats
Station Details ID: 047048 Name: BROKEN HILL AIRPORT AWS Lat: -32.00 Lon: 141.47 Height: 281.3 m
Data from the previous 72 hours. | See also: Recent months at Broken Hill Airport
Date/Time
EST
Temp
°C
App
Temp
°C
Dew
Point
°C
Rel
Hum
%
Delta-T
°C
Wind Press
QNH
hPa
Press
MSL
hPa
Rain since
9am
mm
Dir  Spd
km/h
Gust
km/h
Spd
kts
Gust
kts
23/02:00pm 16.8 11.3 0.5 33 7.2 SW 19 26 10 14 1021.3 1021.4 0.0
23/01:30pm 17.2 11.2 0.8 33 7.3 SSW 22 32 12 17 1021.5 1021.6 0.0
23/01:00pm 16.9 10.8 0.5 33 7.2 SW 22 35 12 19 1021.8 1021.9 0.0
23/12:30pm 16.3 10.7 1.2 36 6.7 SSW 20 30 11 16 1022.3 1022.4 0.0
23/12:00pm 15.9 9.5 0.9 36 6.6 SW 24 33 13 18 1022.8 1023.0 0.0
23/11:30am 15.4 9.8 1.2 38 6.3 SW 20 30 11 16 1023.1 1023.2 0.0
23/11:00am 15.4 10.5 1.9 40 6.0 S 17 24 9 13 1023.1 1023.2 0.0
23/10:30am 15.0 9.4 1.5 40 6.0 SSW 20 30 11 16 1023.2 1023.3 0.0
23/10:00am 13.8 9.2 1.8 44 5.3 SSW 15 22 8 12 1023.4 1023.5 0.0
23/09:30am 13.6 8.4 2.5 47 4.9 SSW 19 24 10 13 1023.3 1023.4 0.0
23/09:00am 12.0 8.6 3.8 57 3.7 WSW 11 17 6 9 1023.3 1023.4 0.0
23/08:30am 9.4 7.4 4.2 70 2.3 SW 4 7 2 4 1023.0 1023.1 0.0
23/08:00am 6.2 3.6 3.0 80 1.3 SW 6 7 3 4 1022.8 1023.0 0.0
23/07:30am 4.5 1.5 2.2 85 0.9 SW 7 7 4 4 1022.5 1022.6 0.0
23/07:00am 4.4 1.6 2.9 90 0.6 SW 7 7 4 4 1022.2 1022.3 0.0
23/06:30am 2.7 -0.3 0.8 87 0.7 SW 6 7 3 4 1022.1 1022.2 0.0
23/06:00am 3.5 0.5 1.7 88 0.7 SW 7 7 4 4 1022.0 1022.1 0.0
23/05:30am 3.4 0.3 1.4 87 0.8 SW 7 7 4 4 1021.7 1021.8 0.0
23/05:00am 2.4 -0.5 -1.4 76 1.4 SW 4 7 2 4 1021.5 1021.6 0.0
23/04:30am 5.6 4.1 2.8 82 1.2 CALM 0 0 0 0 1021.5 1021.6 0.0
23/04:00am 5.3 3.7 2.3 81 1.2 CALM 0 0 0 0 1021.4 1021.5 0.0
23/03:30am 5.9 4.4 2.9 81 1.3 CALM 0 0 0 0 1021.6 1021.7 0.0
23/03:00am 6.1 3.4 2.9 80 1.3 SW 6 7 3 4 1021.6 1021.7 0.0
23/02:30am 6.8 4.2 3.2 78 1.5 SW 6 7 3 4 1021.7 1021.8 0.0
23/02:00am 7.0 4.2 3.4 78 1.5 SW 7 7 4 4 1021.7 1021.8 0.0
23/01:30am 6.7 4.1 3.0 77 1.6 S 6 7 3 4 1021.9 1022.0 0.0
23/01:00am 7.0 4.4 3.3 77 1.6 SSW 6 7 3 4 1022.1 1022.2 0.0
23/12:30am 7.1 4.3 3.0 75 1.7 SSW 7 7 4 4 1022.1 1022.2 0.0
23/12:00am 7.3 4.0 2.6 72 2.0 SSW 9 9 5 5 1022.4 1022.5 0.0
 
Date/Time
EST
Temp
°C
App
Temp
°C
Dew
Point
°C
Rel
Hum
%
Delta-T
°C
Wind Press
QNH
hPa
Press
MSL
hPa
Rain since
9am
mm
Dir  Spd
km/h
Gust
km/h
Spd
kts
Gust
kts
22/11:30pm 8.0 4.8 3.1 71 2.1 SSW 9 11 5 6 1022.5 1022.6 0.0
22/11:00pm 8.5 5.3 3.1 69 2.3 SSW 9 13 5 7 1022.6 1022.7 0.0
22/10:30pm 9.4 5.5 3.4 66 2.6 SSW 13 15 7 8 1022.6 1022.7 0.0
22/10:00pm 10.5 5.5 3.8 63 3.0 SSW 19 24 10 13 1022.5 1022.6 0.0
22/09:30pm 10.9 6.3 3.7 61 3.2 SSW 17 20 9 11 1022.3 1022.4 0.0
22/09:00pm 10.3 6.4 3.6 63 3.0 SSW 13 15 7 8 1022.1 1022.2 0.0
22/08:30pm 10.4 7.2 3.2 61 3.2 SSW 9 13 5 7 1021.7 1021.8 0.0
22/08:00pm 10.9 7.7 3.0 58 3.5 SSW 9 11 5 6 1021.4 1021.5 0.0
22/07:30pm 11.7 8.5 3.2 56 3.8 SSW 9 11 5 6 1021.2 1021.3 0.0
22/07:00pm 12.8 9.2 3.2 52 4.3 SW 11 11 6 6 1020.9 1021.0 0.0
22/06:30pm 14.5 10.3 3.9 49 4.9 SW 15 17 8 9 1020.8 1020.9 0.0
22/06:00pm 15.9 11.4 4.3 46 5.5 SSW 17 24 9 13 1020.6 1020.7 0.0
22/05:30pm 16.9 12.4 4.3 43 6.0 SW 17 26 9 14 1020.2 1020.3 0.0
22/05:00pm 17.1 12.7 4.8 44 5.9 S 17 26 9 14 1019.8 1019.8 0.0
22/04:30pm 17.1 12.9 3.8 41 6.3 SSW 15 22 8 12 1019.5 1019.5 0.0
22/04:00pm 17.6 13.1 4.2 41 6.4 SSW 17 24 9 13 1019.7 1019.7 0.0
22/03:30pm 17.5 12.7 4.8 43 6.1 SW 19 28 10 15 1019.7 1019.7 0.0
22/03:00pm 17.5 13.2 5.4 45 5.9 S 17 26 9 14 1019.6 1019.6 0.0
22/02:30pm 17.0 12.8 5.6 47 5.6 S 17 26 9 14 1019.5 1019.5 0.0
22/02:00pm 16.2 12.3 5.5 49 5.2 SSW 15 24 8 13 1019.9 1020.0 0.0
22/01:30pm 15.9 11.1 5.5 50 5.0 SSW 20 30 11 16 1020.1 1020.2 0.0
22/01:00pm 15.7 11.1 5.6 51 4.9 SSW 19 28 10 15 1020.3 1020.4 0.0
22/12:30pm 15.0 10.2 5.8 54 4.4 S 20 28 11 15 1020.8 1020.9 0.0
22/12:00pm 14.5 9.4 5.8 56 4.2 S 22 35 12 19 1020.9 1021.0 0.0
22/11:30am 14.3 9.8 6.9 61 3.7 S 20 28 11 15 1021.4 1021.5 0.0
22/11:00am 13.4 8.4 6.3 62 3.4 SSW 22 30 12 16 1021.8 1021.9 0.0
22/10:30am 13.0 7.6 6.4 64 3.2 SSW 24 30 13 16 1021.6 1021.7 0.0
22/10:00am 12.0 6.3 6.5 69 2.6 SSW 26 33 14 18 1021.2 1021.3 0.0
22/09:45am 11.4 5.2 6.1 70 2.5 SSW 28 33 15 18 1021.2 1021.3 0.0
22/09:30am 11.1 4.5 6.0 71 2.4 SSW 30 39 16 21 1021.0 1021.1 0.0
22/09:00am 10.0 4.6 6.2 77 1.8 SW 24 30 13 16 1020.8 1020.9 0.0
22/08:30am 8.9 4.3 5.8 81 1.4 SW 19 26 10 14 1020.5 1020.6 0.0
22/08:00am 8.0 4.2 5.6 85 1.1 SW 15 20 8 11 1020.0 1020.1 0.0
22/07:30am 7.5 3.6 5.5 87 0.9 SW 15 17 8 9 1019.6 1019.6 0.0
22/07:00am 7.3 1.3 5.4 88 0.9 SSW 26 35 14 19 1019.1 1019.2 0.0
22/06:30am 7.1 0.7 5.4 89 0.8 SW 28 35 15 19 1018.7 1018.8 0.0
22/06:09am 7.3 1.7 5.6 89 0.8 SW 24 30 13 16 1018.6 1018.7 0.0
22/06:00am 7.0 2.1 5.3 89 0.8 SW 20 24 11 13 1018.4 1018.5 0.0
22/05:36am 7.4 2.6 5.4 87 0.9 SW 20 28 11 15 1018.2 1018.3 0.0
22/05:30am 7.5 2.9 5.5 87 0.9 SW 19 22 10 12 1018.0 1018.1 0.0
22/05:00am 8.8 4.2 6.3 84 1.2 SW 20 28 11 15 1017.8 1017.9 0.0
22/04:30am 9.2 4.8 7.3 88 0.9 SW 20 28 11 15 1017.5 1017.6 0.0
22/04:27am 9.2 4.8 7.5 89 0.8 SW 20 26 11 14 1017.4 1017.5 0.0
22/04:00am 9.1 5.3 7.4 89 0.8 SSW 17 20 9 11 1017.3 1017.4 0.0
22/03:58am 9.2 5.4 7.5 89 0.8 SSW 17 20 9 11 1017.3 1017.4 0.0
22/03:30am 10.0 6.8 8.4 90 0.8 SW 15 20 8 11 1017.1 1017.2 0.0
22/03:00am 9.6 7.1 8.4 92 0.6 SW 11 11 6 6 1017.3 1017.4 0.0
22/02:47am 9.3 6.4 8.1 92 0.6 SSW 13 15 7 8 1017.2 1017.3 0.0
22/02:30am 9.2 6.7 8.0 92 0.6 SW 11 15 6 8 1017.2 1017.3 0.0
22/02:00am 9.7 6.5 8.3 91 0.7 SW 15 19 8 10 1017.2 1017.3 0.0
22/01:43am 10.1 6.2 8.5 90 0.8 SSW 19 24 10 13 1017.1 1017.2 0.0
22/01:30am 10.3 6.3 8.9 91 0.7 SSW 20 26 11 14 1017.0 1017.1 0.0
22/01:00am 11.0 6.7 9.4 90 0.8 SSW 22 30 12 16 1017.0 1017.1 0.0
22/12:30am 11.2 6.9 9.3 88 1.0 SW 22 28 12 15 1016.7 1016.7 0.0
22/12:16am 11.6 7.0 9.5 87 1.1 SW 24 30 13 16 1016.7 1016.7 0.0
22/12:00am 11.7 7.4 9.3 85 1.2 SW 22 30 12 16 1016.5 1016.5 0.0
 
Date/Time
EST
Temp
°C
App
Temp
°C
Dew
Point
°C
Rel
Hum
%
Delta-T
°C
Wind Press
QNH
hPa
Press
MSL
hPa
Rain since
9am
mm
Dir  Spd
km/h
Gust
km/h
Spd
kts
Gust
kts
21/11:30pm 12.3 7.9 9.0 80 1.7 SW 22 28 12 15 1016.5 1016.5 0.0
21/11:00pm 13.1 9.2 8.6 74 2.3 SW 19 26 10 14 1016.2 1016.2 0.0
21/10:30pm 13.3 9.3 8.4 72 2.5 SSW 19 24 10 13 1016.0 1016.0 0.0
21/10:00pm 13.8 8.1 8.4 70 2.7 SW 28 35 15 19 1015.8 1015.8 0.0
21/09:30pm 14.4 10.3 7.7 64 3.4 WSW 19 24 10 13 1015.6 1015.6 0.0
21/09:00pm 14.4 10.9 7.2 62 3.6 W 15 19 8 10 1015.1 1015.2 0.0
21/08:30pm 14.6 10.7 6.9 60 3.8 W 17 20 9 11 1014.8 1014.9 0.0
21/08:00pm 15.2 10.9 7.0 58 4.1 WSW 19 28 10 15 1014.3 1014.4 0.0
21/07:30pm 15.5 11.2 7.0 57 4.2 WSW 19 24 10 13 1013.7 1013.7 0.0
21/07:00pm 15.8 10.1 6.5 54 4.6 WSW 26 41 14 22 1013.3 1013.3 0.0
21/06:30pm 16.2 10.3 5.8 50 5.1 W 26 35 14 19 1012.8 1012.8 0.0
21/06:00pm 16.2 9.2 6.1 51 5.0 W 32 43 17 23 1012.4 1012.4 0.0
21/05:30pm 16.4 9.2 5.1 47 5.5 W 32 43 17 23 1011.8 1011.8 0.0
21/05:00pm 17.4 10.0 4.0 41 6.4 W 32 44 17 24 1011.3 1011.4 0.0
21/04:30pm 17.9 10.3 3.0 37 7.0 W 32 39 17 21 1010.7 1010.7 0.0
21/04:00pm 18.0 10.2 2.7 36 7.1 W 33 44 18 24 1010.5 1010.5 0.0
21/03:30pm 18.4 10.7 2.3 34 7.5 W 32 43 17 23 1010.2 1010.2 0.0
21/03:00pm 18.6 10.7 2.0 33 7.7 W 33 44 18 24 1009.9 1009.9 0.0
21/02:30pm 19.1 11.2 2.0 32 7.9 W 33 48 18 26 1009.8 1009.8 0.0
21/02:00pm 18.9 11.1 1.9 32 7.9 W 32 43 17 23 1009.5 1009.5 0.0
21/01:30pm 18.5 10.3 0.6 30 8.0 WNW 33 43 18 23 1009.8 1009.8 0.0
21/01:00pm 18.0 10.0 0.2 30 7.9 WNW 32 44 17 24 1009.9 1009.9 0.0
21/12:30pm 18.1 10.2 -1.7 26 8.4 WNW 30 44 16 24 1010.3 1010.3 0.0
21/12:06pm 17.8 9.1 -4.8 21 9.0 WNW 32 50 17 27 1010.6 1010.6 0.0
21/12:00pm 18.1 9.5 -4.5 21 9.1 WNW 32 46 17 25 1010.7 1010.7 0.0
21/11:30am 17.5 9.2 -5.0 21 8.9 NW 30 43 16 23 1010.8 1010.9 0.0
21/11:00am 17.1 8.3 -6.0 20 8.9 NNW 32 44 17 24 1011.1 1011.2 0.0
21/10:42am 17.3 8.5 -5.8 20 9.0 NNW 32 50 17 27 1011.1 1011.2 0.0
21/10:30am 16.7 7.9 -6.3 20 8.8 NNW 32 46 17 25 1011.2 1011.3 0.0
21/10:14am 16.4 8.0 -6.0 21 8.6 N 30 50 16 27 1011.5 1011.6 0.0
21/10:00am 15.8 8.3 -4.2 25 7.9 N 26 39 14 21 1011.5 1011.6 0.0
21/09:30am 14.2 6.3 -4.5 27 7.2 N 28 41 15 22 1011.8 1011.8 0.0
21/09:00am 12.7 4.5 -4.0 31 6.4 NNE 30 41 16 22 1011.9 1011.9 0.0
21/08:30am 10.5 2.8 -2.8 39 5.1 NE 28 35 15 19 1012.3 1012.3 0.0
21/08:00am 9.5 2.2 -2.8 42 4.7 NE 26 30 14 16 1012.1 1012.1 0.0
21/07:30am 8.1 0.4 -2.8 46 4.1 NE 28 32 15 17 1011.6 1011.7 0.0
21/07:00am 8.1 0.5 -2.5 47 4.0 NE 28 35 15 19 1011.8 1011.8 0.0
21/06:30am 8.2 0.5 -3.0 45 4.2 NE 28 33 15 18 1011.5 1011.6 0.0
21/06:00am 8.1 1.5 -3.4 44 4.2 NE 22 26 12 14 1011.8 1011.8 0.0
21/05:30am 8.2 1.6 -3.0 45 4.2 NE 22 28 12 15 1012.0 1012.0 0.0
21/05:00am 8.3 1.4 -2.9 45 4.2 NE 24 28 13 15 1012.0 1012.0 0.0
21/04:30am 8.7 1.7 -3.2 43 4.4 NE 24 30 13 16 1012.4 1012.4 0.0
21/04:00am 8.9 2.3 -3.3 42 4.6 NE 22 26 12 14 1012.9 1012.9 0.0
21/03:30am 9.1 2.9 -2.8 43 4.5 NE 20 24 11 13 1013.5 1013.5 0.0
21/03:00am 8.0 2.4 -2.9 46 4.1 NE 17 19 9 10 1014.1 1014.2 0.0
21/02:30am 8.6 3.7 -3.3 43 4.4 NE 13 15 7 8 1014.4 1014.5 0.0
21/02:00am 9.2 3.9 -3.3 41 4.7 NE 15 17 8 9 1014.6 1014.7 0.0
21/01:30am 10.3 5.4 -3.0 39 5.1 NE 13 15 7 8 1015.0 1015.1 0.0
21/01:00am 10.7 5.8 -3.0 38 5.3 NNE 13 17 7 9 1015.7 1015.7 0.0
21/12:30am 11.1 6.2 -3.0 37 5.4 NNE 13 17 7 9 1015.8 1015.8 0.0
21/12:00am 11.7 7.1 -4.4 32 6.0 N 11 15 6 8 1016.8 1016.9 0.0
 
Date/Time
EST
Temp
°C
App
Temp
°C
Dew
Point
°C
Rel
Hum
%
Delta-T
°C
Wind Press
QNH
hPa
Press
MSL
hPa
Rain since
9am
mm
Dir  Spd
km/h
Gust
km/h
Spd
kts
Gust
kts
20/11:30pm 12.1 7.0 -4.9 30 6.3 NW 13 24 7 13 1017.4 1017.5 0.0
20/11:00pm 12.3 5.9 -4.8 30 6.4 WNW 20 28 11 15 1018.3 1018.4 0.0
20/10:47pm 12.5 5.7 -5.0 29 6.5 WNW 22 30 12 16 1018.5 1018.6 0.0
20/10:30pm 12.4 6.6 -5.1 29 6.5 NNW 17 24 9 13 1016.5 1016.5 0.0
20/10:00pm 12.3 5.1 -5.2 29 6.5 NNE 24 35 13 19 1015.3 1015.4 0.0
20/09:30pm 12.4 4.5 -5.1 29 6.5 NNE 28 35 15 19 1014.5 1014.6 0.0
20/09:00pm 12.9 5.2 -6.1 26 7.0 NNE 26 35 14 19 1015.5 1015.5 0.0
20/08:37pm 13.1 4.6 -6.5 25 7.1 NNE 30 50 16 27 1014.8 1014.9 0.0
20/08:30pm 13.3 4.9 -6.3 25 7.2 NNE 30 39 16 21 1015.0 1015.1 0.0
20/08:00pm 13.7 5.6 -6.5 24 7.4 NNE 28 41 15 22 1015.5 1015.5 0.0
20/07:30pm 13.8 6.3 -8.1 21 7.8 NNE 24 30 13 16 1016.0 1016.0 0.0
20/07:00pm 13.7 7.2 -7.6 22 7.6 NE 19 24 10 13 1016.6 1016.6 0.0
20/06:30pm 13.9 8.5 -8.0 21 7.8 NNE 13 17 7 9 1017.8 1017.9 0.0
20/06:00pm 14.0 7.9 -7.9 21 7.8 N 17 22 9 12 1018.1 1018.2 0.0
20/05:30pm 14.3 7.6 -8.3 20 8.0 NNE 20 28 11 15 1018.0 1018.1 0.0
20/05:00pm 14.4 7.8 -7.0 22 7.8 NNE 20 28 11 15 1018.1 1018.2 0.0
20/04:30pm 14.5 8.5 -6.9 22 7.9 N 17 26 9 14 1018.6 1018.7 0.0
20/04:00pm 14.8 8.7 -7.3 21 8.0 NNE 17 35 9 19 1018.8 1018.9 0.0
20/03:30pm 14.9 8.5 -6.6 22 8.0 N 19 30 10 16 1019.6 1019.6 0.0
20/03:00pm 15.0 9.4 -5.9 23 7.9 N 15 28 8 15 1019.9 1020.0 0.0

Other Formats:

Comma delimited format used in spreadsheet applications
http://www.bom.gov.au/fwo/IDN60801/IDN60801.94691.axf

JavaScript Object Notation format (JSON) in row-major order
http://www.bom.gov.au/fwo/IDN60801/IDN60801.94691.json